Terminal Aerodrome Forecast
Issued by NWS

Home | Current Version | Previous Version | Text Only | Print | Product List | Glossary On
Versions: 1 2 3 4 5 6 7 8 9 10 11 12
000
FTUS41 KAKQ 222300
TAFPHF
TAF
KPHF 222326Z 2300/2324 23007KT P6SM BKN250
     FM230900 21006KT P6SM SCT040 BKN150
     FM231500 20008KT P6SM BKN040 OVC110
     FM232000 19011KT P6SM -RA OVC040=

USA.gov is the U.S. government's official web portal to all federal, state and local government web resources and services.